sensor_id;sensor_type;location;lat;lon;timestamp;temperature;humidity
45619;DHT22;31343;47.520;19.144;2024-02-26T00:01:36;9.70;99.90
45619;DHT22;31343;47.520;19.144;2024-02-26T00:04:02;9.70;99.90
45619;DHT22;31343;47.520;19.144;2024-02-26T00:06:29;9.70;99.90
45619;DHT22;31343;47.520;19.144;2024-02-26T00:08:54;9.60;99.90
45619;DHT22;31343;47.520;19.144;2024-02-26T00:11:20;9.60;99.90
45619;DHT22;31343;47.520;19.144;2024-02-26T00:13:46;9.50;99.90
45619;DHT22;31343;47.520;19.144;2024-02-26T00:16:11;9.60;99.90
45619;DHT22;31343;47.520;19.144;2024-02-26T00:18:37;9.60;99.90
45619;DHT22;31343;47.520;19.144;2024-02-26T00:21:03;9.60;99.90
45619;DHT22;31343;47.520;19.144;2024-02-26T00:23:29;9.60;99.90
45619;DHT22;31343;47.520;19.144;2024-02-26T00:25:54;9.60;99.90
45619;DHT22;31343;47.520;19.144;2024-02-26T00:28:21;9.60;99.90
45619;DHT22;31343;47.520;19.144;2024-02-26T00:30:47;9.60;99.90
45619;DHT22;31343;47.520;19.144;2024-02-26T00:33:15;9.60;99.90
45619;DHT22;31343;47.520;19.144;2024-02-26T00:35:40;9.50;99.90
45619;DHT22;31343;47.520;19.144;2024-02-26T00:38:06;9.60;99.90
45619;DHT22;31343;47.520;19.144;2024-02-26T00:40:32;9.60;99.90
45619;DHT22;31343;47.520;19.144;2024-02-26T00:42:57;9.70;99.90
45619;DHT22;31343;47.520;19.144;2024-02-26T00:45:23;9.60;99.90
45619;DHT22;31343;47.520;19.144;2024-02-26T00:47:49;9.60;99.90
45619;DHT22;31343;47.520;19.144;2024-02-26T00:50:15;9.70;99.90
45619;DHT22;31343;47.520;19.144;2024-02-26T00:52:41;9.60;99.90
45619;DHT22;31343;47.520;19.144;2024-02-26T00:55:07;9.60;99.90
45619;DHT22;31343;47.520;19.144;2024-02-26T00:57:33;9.60;99.90
45619;DHT22;31343;47.520;19.144;2024-02-26T00:59:58;9.60;99.90
45619;DHT22;31343;47.520;19.144;2024-02-26T01:02:24;9.60;99.90
45619;DHT22;31343;47.520;19.144;2024-02-26T01:04:51;9.60;99.90
45619;DHT22;31343;47.520;19.144;2024-02-26T01:07:16;9.60;99.90
45619;DHT22;31343;47.520;19.144;2024-02-26T01:09:42;9.60;99.90
45619;DHT22;31343;47.520;19.144;2024-02-26T01:12:08;9.70;99.90
45619;DHT22;31343;47.520;19.144;2024-02-26T01:14:34;9.70;99.90
45619;DHT22;31343;47.520;19.144;2024-02-26T01:16:59;9.70;99.90
45619;DHT22;31343;47.520;19.144;2024-02-26T01:19:25;9.60;99.90
45619;DHT22;31343;47.520;19.144;2024-02-26T01:21:51;9.60;99.90
45619;DHT22;31343;47.520;19.144;2024-02-26T01:24:16;9.60;99.90
45619;DHT22;31343;47.520;19.144;2024-02-26T01:26:42;9.70;99.90
45619;DHT22;31343;47.520;19.144;2024-02-26T01:29:08;9.60;99.90
45619;DHT22;31343;47.520;19.144;2024-02-26T01:31:34;9.60;99.90
45619;DHT22;31343;47.520;19.144;2024-02-26T01:34:00;9.60;99.90
45619;DHT22;31343;47.520;19.144;2024-02-26T01:36:26;9.50;99.90
45619;DHT22;31343;47.520;19.144;2024-02-26T01:38:51;9.60;99.90
45619;DHT22;31343;47.520;19.144;2024-02-26T01:41:17;9.60;99.90
45619;DHT22;31343;47.520;19.144;2024-02-26T01:43:43;9.60;99.90
45619;DHT22;31343;47.520;19.144;2024-02-26T01:46:13;9.60;99.90
45619;DHT22;31343;47.520;19.144;2024-02-26T01:48:43;9.60;99.90
45619;DHT22;31343;47.520;19.144;2024-02-26T01:51:11;9.60;99.90
45619;DHT22;31343;47.520;19.144;2024-02-26T01:53:38;9.60;99.90
45619;DHT22;31343;47.520;19.144;2024-02-26T01:56:04;9.70;99.90
45619;DHT22;31343;47.520;19.144;2024-02-26T01:58:30;9.70;99.90
45619;DHT22;31343;47.520;19.144;2024-02-26T02:00:57;9.70;99.90
45619;DHT22;31343;47.520;19.144;2024-02-26T02:03:23;9.70;99.90
45619;DHT22;31343;47.520;19.144;2024-02-26T02:05:49;9.70;99.90
45619;DHT22;31343;47.520;19.144;2024-02-26T02:08:15;9.70;99.90
45619;DHT22;31343;47.520;19.144;2024-02-26T02:10:42;9.70;99.90
45619;DHT22;31343;47.520;19.144;2024-02-26T02:13:08;9.70;99.90
45619;DHT22;31343;47.520;19.144;2024-02-26T02:15:34;9.70;99.90
45619;DHT22;31343;47.520;19.144;2024-02-26T02:17:59;9.70;99.90
45619;DHT22;31343;47.520;19.144;2024-02-26T02:20:31;9.70;99.90
45619;DHT22;31343;47.520;19.144;2024-02-26T02:22:58;9.70;99.90
45619;DHT22;31343;47.520;19.144;2024-02-26T02:25:23;9.60;99.90
45619;DHT22;31343;47.520;19.144;2024-02-26T02:27:49;9.70;99.90
45619;DHT22;31343;47.520;19.144;2024-02-26T02:30:15;9.60;99.90
45619;DHT22;31343;47.520;19.144;2024-02-26T02:32:41;9.70;99.90
45619;DHT22;31343;47.520;19.144;2024-02-26T02:35:07;9.70;99.90
45619;DHT22;31343;47.520;19.144;2024-02-26T02:37:33;9.70;99.90
45619;DHT22;31343;47.520;19.144;2024-02-26T02:39:59;9.70;99.90
45619;DHT22;31343;47.520;19.144;2024-02-26T02:42:25;9.70;99.90
45619;DHT22;31343;47.520;19.144;2024-02-26T02:44:51;9.70;99.90
45619;DHT22;31343;47.520;19.144;2024-02-26T02:47:17;9.80;99.90
45619;DHT22;31343;47.520;19.144;2024-02-26T02:49:42;9.80;99.90
45619;DHT22;31343;47.520;19.144;2024-02-26T02:52:08;9.70;99.90
45619;DHT22;31343;47.520;19.144;2024-02-26T02:54:34;9.70;99.90
45619;DHT22;31343;47.520;19.144;2024-02-26T02:56:59;9.70;99.90
45619;DHT22;31343;47.520;19.144;2024-02-26T02:59:25;9.60;99.90
45619;DHT22;31343;47.520;19.144;2024-02-26T03:01:51;9.60;99.90
45619;DHT22;31343;47.520;19.144;2024-02-26T03:04:17;9.60;99.90
45619;DHT22;31343;47.520;19.144;2024-02-26T03:06:43;9.60;99.90
45619;DHT22;31343;47.520;19.144;2024-02-26T03:09:08;9.70;99.90
45619;DHT22;31343;47.520;19.144;2024-02-26T03:11:34;9.50;99.90
45619;DHT22;31343;47.520;19.144;2024-02-26T03:14:00;9.50;99.90
45619;DHT22;31343;47.520;19.144;2024-02-26T03:16:26;9.60;99.90
45619;DHT22;31343;47.520;19.144;2024-02-26T03:18:51;9.60;99.90
45619;DHT22;31343;47.520;19.144;2024-02-26T03:21:18;9.60;99.90
45619;DHT22;31343;47.520;19.144;2024-02-26T03:23:43;9.60;99.90
45619;DHT22;31343;47.520;19.144;2024-02-26T03:26:09;9.60;99.90
45619;DHT22;31343;47.520;19.144;2024-02-26T03:28:39;9.60;99.90
45619;DHT22;31343;47.520;19.144;2024-02-26T03:31:04;9.60;99.90
45619;DHT22;31343;47.520;19.144;2024-02-26T03:33:30;9.60;99.90
45619;DHT22;31343;47.520;19.144;2024-02-26T03:35:56;9.50;99.90
45619;DHT22;31343;47.520;19.144;2024-02-26T03:38:21;9.50;99.90
45619;DHT22;31343;47.520;19.144;2024-02-26T03:40:47;9.60;99.90
45619;DHT22;31343;47.520;19.144;2024-02-26T03:43:13;9.50;99.90
45619;DHT22;31343;47.520;19.144;2024-02-26T03:45:39;9.50;99.90
45619;DHT22;31343;47.520;19.144;2024-02-26T03:48:05;9.50;99.90
45619;DHT22;31343;47.520;19.144;2024-02-26T03:50:31;9.50;99.90
45619;DHT22;31343;47.520;19.144;2024-02-26T03:52:56;9.40;99.90
45619;DHT22;31343;47.520;19.144;2024-02-26T03:55:23;9.40;99.90
45619;DHT22;31343;47.520;19.144;2024-02-26T03:57:53;9.40;99.90
45619;DHT22;31343;47.520;19.144;2024-02-26T04:00:20;9.40;99.90
45619;DHT22;31343;47.520;19.144;2024-02-26T04:02:47;9.40;99.90
45619;DHT22;31343;47.520;19.144;2024-02-26T04:05:13;9.40;99.90
45619;DHT22;31343;47.520;19.144;2024-02-26T04:07:40;9.40;99.90
45619;DHT22;31343;47.520;19.144;2024-02-26T04:10:12;9.40;99.90
45619;DHT22;31343;47.520;19.144;2024-02-26T04:12:39;9.40;99.90
45619;DHT22;31343;47.520;19.144;2024-02-26T04:15:10;9.40;99.90
45619;DHT22;31343;47.520;19.144;2024-02-26T04:17:36;9.40;99.90
45619;DHT22;31343;47.520;19.144;2024-02-26T04:20:03;9.40;99.90
45619;DHT22;31343;47.520;19.144;2024-02-26T04:22:30;9.30;99.90
45619;DHT22;31343;47.520;19.144;2024-02-26T04:24:57;9.30;99.90
45619;DHT22;31343;47.520;19.144;2024-02-26T04:27:23;9.30;99.90
45619;DHT22;31343;47.520;19.144;2024-02-26T04:29:48;9.30;99.90
45619;DHT22;31343;47.520;19.144;2024-02-26T04:32:14;9.30;99.90
45619;DHT22;31343;47.520;19.144;2024-02-26T04:34:39;9.20;99.90
45619;DHT22;31343;47.520;19.144;2024-02-26T04:37:05;9.20;99.90
45619;DHT22;31343;47.520;19.144;2024-02-26T04:39:31;9.30;99.90
45619;DHT22;31343;47.520;19.144;2024-02-26T04:41:56;9.20;99.90
45619;DHT22;31343;47.520;19.144;2024-02-26T04:44:22;9.20;99.90
45619;DHT22;31343;47.520;19.144;2024-02-26T04:46:47;9.30;99.90
45619;DHT22;31343;47.520;19.144;2024-02-26T04:49:13;9.30;99.90
45619;DHT22;31343;47.520;19.144;2024-02-26T04:51:39;9.30;99.90
45619;DHT22;31343;47.520;19.144;2024-02-26T04:54:04;9.30;99.90
45619;DHT22;31343;47.520;19.144;2024-02-26T04:56:30;9.30;99.90
45619;DHT22;31343;47.520;19.144;2024-02-26T04:58:55;9.20;99.90
45619;DHT22;31343;47.520;19.144;2024-02-26T05:01:21;9.20;99.90
45619;DHT22;31343;47.520;19.144;2024-02-26T05:03:47;9.20;99.90
45619;DHT22;31343;47.520;19.144;2024-02-26T05:06:13;9.30;99.90
45619;DHT22;31343;47.520;19.144;2024-02-26T05:08:39;9.30;99.90
45619;DHT22;31343;47.520;19.144;2024-02-26T05:11:05;9.30;99.90
45619;DHT22;31343;47.520;19.144;2024-02-26T05:13:31;9.30;99.90
45619;DHT22;31343;47.520;19.144;2024-02-26T05:15:57;9.20;99.90
45619;DHT22;31343;47.520;19.144;2024-02-26T05:18:23;9.30;99.90
45619;DHT22;31343;47.520;19.144;2024-02-26T05:20:48;9.30;99.90
45619;DHT22;31343;47.520;19.144;2024-02-26T05:23:14;9.30;99.90
45619;DHT22;31343;47.520;19.144;2024-02-26T05:25:39;9.20;99.90
45619;DHT22;31343;47.520;19.144;2024-02-26T05:28:06;9.20;99.90
45619;DHT22;31343;47.520;19.144;2024-02-26T05:30:32;9.30;99.90
45619;DHT22;31343;47.520;19.144;2024-02-26T05:32:58;9.30;99.90
45619;DHT22;31343;47.520;19.144;2024-02-26T05:35:24;9.30;99.90
45619;DHT22;31343;47.520;19.144;2024-02-26T05:37:50;9.30;99.90
45619;DHT22;31343;47.520;19.144;2024-02-26T05:40:15;9.20;99.90
45619;DHT22;31343;47.520;19.144;2024-02-26T05:42:42;9.10;99.90
45619;DHT22;31343;47.520;19.144;2024-02-26T05:45:10;9.20;99.90
45619;DHT22;31343;47.520;19.144;2024-02-26T05:47:35;9.20;99.90
45619;DHT22;31343;47.520;19.144;2024-02-26T05:50:02;9.30;99.90
45619;DHT22;31343;47.520;19.144;2024-02-26T05:52:27;9.30;99.90
45619;DHT22;31343;47.520;19.144;2024-02-26T05:54:55;9.30;99.90
45619;DHT22;31343;47.520;19.144;2024-02-26T05:57:20;9.40;99.90
45619;DHT22;31343;47.520;19.144;2024-02-26T05:59:46;9.40;99.90
45619;DHT22;31343;47.520;19.144;2024-02-26T06:02:11;9.40;99.90
45619;DHT22;31343;47.520;19.144;2024-02-26T06:04:37;9.50;99.90
45619;DHT22;31343;47.520;19.144;2024-02-26T06:07:03;9.50;99.90
45619;DHT22;31343;47.520;19.144;2024-02-26T06:09:28;9.50;99.90
45619;DHT22;31343;47.520;19.144;2024-02-26T06:11:54;9.50;99.90
45619;DHT22;31343;47.520;19.144;2024-02-26T06:14:20;9.50;99.90
45619;DHT22;31343;47.520;19.144;2024-02-26T06:16:46;9.60;99.90
45619;DHT22;31343;47.520;19.144;2024-02-26T06:19:12;9.70;99.90
45619;DHT22;31343;47.520;19.144;2024-02-26T06:21:37;9.70;99.90
45619;DHT22;31343;47.520;19.144;2024-02-26T06:24:03;9.80;99.90
45619;DHT22;31343;47.520;19.144;2024-02-26T06:26:29;9.90;99.90
45619;DHT22;31343;47.520;19.144;2024-02-26T06:28:55;9.90;99.90
45619;DHT22;31343;47.520;19.144;2024-02-26T06:31:24;9.90;99.90
45619;DHT22;31343;47.520;19.144;2024-02-26T06:33:53;9.90;99.90
45619;DHT22;31343;47.520;19.144;2024-02-26T06:36:18;10.00;99.90
45619;DHT22;31343;47.520;19.144;2024-02-26T06:38:44;10.10;99.90
45619;DHT22;31343;47.520;19.144;2024-02-26T06:41:10;10.00;99.90
45619;DHT22;31343;47.520;19.144;2024-02-26T06:43:36;10.00;99.90
45619;DHT22;31343;47.520;19.144;2024-02-26T06:46:02;10.00;99.90
45619;DHT22;31343;47.520;19.144;2024-02-26T06:48:28;10.20;99.90
45619;DHT22;31343;47.520;19.144;2024-02-26T06:50:54;10.10;99.90
45619;DHT22;31343;47.520;19.144;2024-02-26T06:53:19;10.20;99.90
45619;DHT22;31343;47.520;19.144;2024-02-26T06:55:45;10.30;99.90
45619;DHT22;31343;47.520;19.144;2024-02-26T06:58:11;10.30;99.90
45619;DHT22;31343;47.520;19.144;2024-02-26T07:00:36;10.30;99.90
45619;DHT22;31343;47.520;19.144;2024-02-26T07:03:02;10.40;99.90
45619;DHT22;31343;47.520;19.144;2024-02-26T07:05:28;10.40;99.90
45619;DHT22;31343;47.520;19.144;2024-02-26T07:07:54;10.50;99.90
45619;DHT22;31343;47.520;19.144;2024-02-26T07:10:19;10.50;99.90
45619;DHT22;31343;47.520;19.144;2024-02-26T07:12:46;10.50;99.90
45619;DHT22;31343;47.520;19.144;2024-02-26T07:15:13;10.50;99.90
45619;DHT22;31343;47.520;19.144;2024-02-26T07:17:39;10.50;99.90
45619;DHT22;31343;47.520;19.144;2024-02-26T07:20:08;10.50;99.90
45619;DHT22;31343;47.520;19.144;2024-02-26T07:22:35;10.60;99.90
45619;DHT22;31343;47.520;19.144;2024-02-26T07:25:01;10.70;99.90
45619;DHT22;31343;47.520;19.144;2024-02-26T07:27:26;10.80;99.90
45619;DHT22;31343;47.520;19.144;2024-02-26T07:29:52;10.80;99.90
45619;DHT22;31343;47.520;19.144;2024-02-26T07:32:18;10.90;99.90
45619;DHT22;31343;47.520;19.144;2024-02-26T07:34:43;11.00;99.90
45619;DHT22;31343;47.520;19.144;2024-02-26T07:37:11;11.00;99.90
45619;DHT22;31343;47.520;19.144;2024-02-26T07:39:36;11.00;99.90
45619;DHT22;31343;47.520;19.144;2024-02-26T07:42:03;11.10;99.90
45619;DHT22;31343;47.520;19.144;2024-02-26T07:44:28;11.20;99.90
45619;DHT22;31343;47.520;19.144;2024-02-26T07:46:54;11.50;99.90
45619;DHT22;31343;47.520;19.144;2024-02-26T07:49:20;11.30;99.90
45619;DHT22;31343;47.520;19.144;2024-02-26T07:51:45;11.30;99.90
45619;DHT22;31343;47.520;19.144;2024-02-26T07:54:11;11.50;99.90
45619;DHT22;31343;47.520;19.144;2024-02-26T07:56:36;11.50;99.90
45619;DHT22;31343;47.520;19.144;2024-02-26T07:59:02;11.30;99.90
45619;DHT22;31343;47.520;19.144;2024-02-26T08:01:28;11.30;99.90
45619;DHT22;31343;47.520;19.144;2024-02-26T08:03:54;11.20;99.90
45619;DHT22;31343;47.520;19.144;2024-02-26T08:06:19;11.30;99.90
45619;DHT22;31343;47.520;19.144;2024-02-26T08:08:45;11.30;99.90
45619;DHT22;31343;47.520;19.144;2024-02-26T08:11:10;11.30;99.90
45619;DHT22;31343;47.520;19.144;2024-02-26T08:13:36;11.10;99.90
45619;DHT22;31343;47.520;19.144;2024-02-26T08:16:02;11.10;99.90
45619;DHT22;31343;47.520;19.144;2024-02-26T08:18:27;11.20;99.90
45619;DHT22;31343;47.520;19.144;2024-02-26T08:20:53;11.40;99.90
45619;DHT22;31343;47.520;19.144;2024-02-26T08:23:19;11.50;99.90
45619;DHT22;31343;47.520;19.144;2024-02-26T08:25:44;11.50;99.90
45619;DHT22;31343;47.520;19.144;2024-02-26T08:28:10;11.60;99.90
45619;DHT22;31343;47.520;19.144;2024-02-26T08:30:38;11.50;99.90
45619;DHT22;31343;47.520;19.144;2024-02-26T08:33:04;11.50;99.90
45619;DHT22;31343;47.520;19.144;2024-02-26T08:35:30;11.70;99.90
45619;DHT22;31343;47.520;19.144;2024-02-26T08:37:56;11.80;99.90
45619;DHT22;31343;47.520;19.144;2024-02-26T08:40:21;11.90;99.90
45619;DHT22;31343;47.520;19.144;2024-02-26T08:42:47;11.80;99.90
45619;DHT22;31343;47.520;19.144;2024-02-26T08:45:12;11.70;99.90
45619;DHT22;31343;47.520;19.144;2024-02-26T08:47:38;11.80;99.90
45619;DHT22;31343;47.520;19.144;2024-02-26T08:50:04;11.90;99.90
45619;DHT22;31343;47.520;19.144;2024-02-26T08:52:30;11.90;99.90
45619;DHT22;31343;47.520;19.144;2024-02-26T08:54:56;11.90;99.90
45619;DHT22;31343;47.520;19.144;2024-02-26T08:57:22;11.90;99.90
45619;DHT22;31343;47.520;19.144;2024-02-26T08:59:48;11.90;99.90
45619;DHT22;31343;47.520;19.144;2024-02-26T09:02:13;11.80;99.90
45619;DHT22;31343;47.520;19.144;2024-02-26T09:04:39;11.70;99.90
45619;DHT22;31343;47.520;19.144;2024-02-26T09:07:05;11.70;99.90
45619;DHT22;31343;47.520;19.144;2024-02-26T09:09:31;11.70;99.90
45619;DHT22;31343;47.520;19.144;2024-02-26T09:11:57;11.80;99.90
45619;DHT22;31343;47.520;19.144;2024-02-26T09:14:22;11.70;99.90
45619;DHT22;31343;47.520;19.144;2024-02-26T09:16:48;11.70;99.90
45619;DHT22;31343;47.520;19.144;2024-02-26T09:19:17;11.70;99.90
45619;DHT22;31343;47.520;19.144;2024-02-26T09:21:43;11.60;99.90
45619;DHT22;31343;47.520;19.144;2024-02-26T09:24:10;11.60;99.90
45619;DHT22;31343;47.520;19.144;2024-02-26T09:26:37;11.70;99.90
45619;DHT22;31343;47.520;19.144;2024-02-26T09:29:02;11.80;99.90
45619;DHT22;31343;47.520;19.144;2024-02-26T09:31:30;11.90;99.90
45619;DHT22;31343;47.520;19.144;2024-02-26T09:33:55;12.10;99.90
45619;DHT22;31343;47.520;19.144;2024-02-26T09:36:21;12.20;99.90
45619;DHT22;31343;47.520;19.144;2024-02-26T09:38:47;12.30;99.90
45619;DHT22;31343;47.520;19.144;2024-02-26T09:41:14;12.30;99.90
45619;DHT22;31343;47.520;19.144;2024-02-26T09:43:44;12.30;99.90
45619;DHT22;31343;47.520;19.144;2024-02-26T09:46:10;12.30;99.90
45619;DHT22;31343;47.520;19.144;2024-02-26T09:48:37;12.30;99.90
45619;DHT22;31343;47.520;19.144;2024-02-26T09:51:03;12.30;99.90
45619;DHT22;31343;47.520;19.144;2024-02-26T09:53:30;12.20;99.90
45619;DHT22;31343;47.520;19.144;2024-02-26T09:55:58;12.30;99.90
45619;DHT22;31343;47.520;19.144;2024-02-26T09:58:26;12.40;99.90
45619;DHT22;31343;47.520;19.144;2024-02-26T10:00:56;12.60;99.90
45619;DHT22;31343;47.520;19.144;2024-02-26T10:03:36;12.60;99.90
45619;DHT22;31343;47.520;19.144;2024-02-26T10:06:04;12.70;99.90
45619;DHT22;31343;47.520;19.144;2024-02-26T10:08:31;12.70;99.90
45619;DHT22;31343;47.520;19.144;2024-02-26T10:10:57;12.70;99.90
45619;DHT22;31343;47.520;19.144;2024-02-26T10:13:23;12.70;99.90
45619;DHT22;31343;47.520;19.144;2024-02-26T10:15:49;12.90;99.90
45619;DHT22;31343;47.520;19.144;2024-02-26T10:18:15;12.90;99.90
45619;DHT22;31343;47.520;19.144;2024-02-26T10:20:40;12.90;99.90
45619;DHT22;31343;47.520;19.144;2024-02-26T10:23:07;12.90;99.90
45619;DHT22;31343;47.520;19.144;2024-02-26T10:25:33;12.80;99.90
45619;DHT22;31343;47.520;19.144;2024-02-26T10:28:02;12.80;99.90
45619;DHT22;31343;47.520;19.144;2024-02-26T10:30:28;12.70;99.90
45619;DHT22;31343;47.520;19.144;2024-02-26T10:32:54;12.80;99.90
45619;DHT22;31343;47.520;19.144;2024-02-26T10:35:20;12.90;99.90
45619;DHT22;31343;47.520;19.144;2024-02-26T10:37:46;13.00;99.90
45619;DHT22;31343;47.520;19.144;2024-02-26T10:40:13;13.10;99.90
45619;DHT22;31343;47.520;19.144;2024-02-26T10:42:40;13.40;99.90
45619;DHT22;31343;47.520;19.144;2024-02-26T10:45:07;13.60;99.90
45619;DHT22;31343;47.520;19.144;2024-02-26T10:47:37;13.80;99.90
45619;DHT22;31343;47.520;19.144;2024-02-26T10:50:05;14.20;99.90
45619;DHT22;31343;47.520;19.144;2024-02-26T10:52:35;14.60;99.90
45619;DHT22;31343;47.520;19.144;2024-02-26T10:55:02;14.60;99.90
45619;DHT22;31343;47.520;19.144;2024-02-26T10:57:33;14.70;99.90
45619;DHT22;31343;47.520;19.144;2024-02-26T11:00:00;14.60;99.90
45619;DHT22;31343;47.520;19.144;2024-02-26T11:02:27;14.50;99.90
45619;DHT22;31343;47.520;19.144;2024-02-26T11:04:53;14.40;99.90
45619;DHT22;31343;47.520;19.144;2024-02-26T11:07:19;14.40;99.90
45619;DHT22;31343;47.520;19.144;2024-02-26T11:09:46;14.50;99.90
45619;DHT22;31343;47.520;19.144;2024-02-26T11:12:18;14.60;99.90
45619;DHT22;31343;47.520;19.144;2024-02-26T11:14:46;14.70;99.90
45619;DHT22;31343;47.520;19.144;2024-02-26T11:17:13;15.00;99.90
45619;DHT22;31343;47.520;19.144;2024-02-26T11:19:43;15.20;99.90
45619;DHT22;31343;47.520;19.144;2024-02-26T11:22:09;15.10;99.90
45619;DHT22;31343;47.520;19.144;2024-02-26T11:24:35;15.30;99.90
45619;DHT22;31343;47.520;19.144;2024-02-26T11:27:06;15.60;99.90
45619;DHT22;31343;47.520;19.144;2024-02-26T11:29:43;15.40;99.90
45619;DHT22;31343;47.520;19.144;2024-02-26T11:32:10;15.40;99.90
45619;DHT22;31343;47.520;19.144;2024-02-26T11:34:36;15.50;99.90
45619;DHT22;31343;47.520;19.144;2024-02-26T11:37:13;15.60;99.90
45619;DHT22;31343;47.520;19.144;2024-02-26T11:39:43;15.40;99.90
45619;DHT22;31343;47.520;19.144;2024-02-26T11:42:14;15.80;99.90
45619;DHT22;31343;47.520;19.144;2024-02-26T11:44:40;15.80;99.90
45619;DHT22;31343;47.520;19.144;2024-02-26T11:47:17;15.90;99.90
45619;DHT22;31343;47.520;19.144;2024-02-26T11:49:43;16.30;99.90
45619;DHT22;31343;47.520;19.144;2024-02-26T11:52:10;16.80;99.90
45619;DHT22;31343;47.520;19.144;2024-02-26T11:54:52;17.50;99.90
45619;DHT22;31343;47.520;19.144;2024-02-26T11:59:54;17.50;99.90
45619;DHT22;31343;47.520;19.144;2024-02-26T12:05:33;16.70;99.90
45619;DHT22;31343;47.520;19.144;2024-02-26T12:08:06;16.50;99.90
45619;DHT22;31343;47.520;19.144;2024-02-26T12:10:34;16.20;99.90
45619;DHT22;31343;47.520;19.144;2024-02-26T12:13:10;16.00;99.90
45619;DHT22;31343;47.520;19.144;2024-02-26T12:15:39;15.50;99.90
45619;DHT22;31343;47.520;19.144;2024-02-26T12:18:07;15.20;99.90
45619;DHT22;31343;47.520;19.144;2024-02-26T12:20:33;15.30;99.90
45619;DHT22;31343;47.520;19.144;2024-02-26T12:23:02;15.40;99.90
45619;DHT22;31343;47.520;19.144;2024-02-26T12:25:30;15.50;99.90
45619;DHT22;31343;47.520;19.144;2024-02-26T12:27:57;15.50;99.90
45619;DHT22;31343;47.520;19.144;2024-02-26T12:30:23;15.60;99.90
45619;DHT22;31343;47.520;19.144;2024-02-26T12:32:51;15.60;99.90
45619;DHT22;31343;47.520;19.144;2024-02-26T12:35:17;15.40;99.90
45619;DHT22;31343;47.520;19.144;2024-02-26T12:37:43;15.30;99.90
45619;DHT22;31343;47.520;19.144;2024-02-26T12:40:10;15.20;99.90
45619;DHT22;31343;47.520;19.144;2024-02-26T12:42:36;15.20;99.90
45619;DHT22;31343;47.520;19.144;2024-02-26T12:45:10;15.00;99.90
45619;DHT22;31343;47.520;19.144;2024-02-26T12:47:37;15.00;99.90
45619;DHT22;31343;47.520;19.144;2024-02-26T12:50:04;15.10;99.90
45619;DHT22;31343;47.520;19.144;2024-02-26T12:52:31;15.20;99.90
45619;DHT22;31343;47.520;19.144;2024-02-26T12:54:57;15.10;99.90
45619;DHT22;31343;47.520;19.144;2024-02-26T12:57:23;15.10;99.90
45619;DHT22;31343;47.520;19.144;2024-02-26T12:59:49;15.10;99.90
45619;DHT22;31343;47.520;19.144;2024-02-26T13:02:15;15.30;99.90
45619;DHT22;31343;47.520;19.144;2024-02-26T13:04:41;15.40;99.90
45619;DHT22;31343;47.520;19.144;2024-02-26T13:07:06;15.70;99.90
45619;DHT22;31343;47.520;19.144;2024-02-26T13:09:33;16.10;99.90
45619;DHT22;31343;47.520;19.144;2024-02-26T13:12:06;16.50;99.90
45619;DHT22;31343;47.520;19.144;2024-02-26T13:14:32;16.40;99.90
45619;DHT22;31343;47.520;19.144;2024-02-26T13:17:00;16.70;99.90
45619;DHT22;31343;47.520;19.144;2024-02-26T13:19:26;17.20;99.90
45619;DHT22;31343;47.520;19.144;2024-02-26T13:21:55;17.40;99.90
45619;DHT22;31343;47.520;19.144;2024-02-26T13:24:21;17.40;99.90
45619;DHT22;31343;47.520;19.144;2024-02-26T13:26:54;17.40;99.90
45619;DHT22;31343;47.520;19.144;2024-02-26T13:29:20;17.00;99.90
45619;DHT22;31343;47.520;19.144;2024-02-26T13:31:46;16.70;99.90
45619;DHT22;31343;47.520;19.144;2024-02-26T13:34:27;16.30;99.90
45619;DHT22;31343;47.520;19.144;2024-02-26T13:36:54;16.00;99.90
45619;DHT22;31343;47.520;19.144;2024-02-26T13:39:24;15.90;99.90
45619;DHT22;31343;47.520;19.144;2024-02-26T13:41:50;15.80;99.90
45619;DHT22;31343;47.520;19.144;2024-02-26T13:44:16;16.10;99.90
45619;DHT22;31343;47.520;19.144;2024-02-26T13:46:42;16.80;99.90
45619;DHT22;31343;47.520;19.144;2024-02-26T13:49:09;17.30;99.90
45619;DHT22;31343;47.520;19.144;2024-02-26T13:51:34;17.30;99.90
45619;DHT22;31343;47.520;19.144;2024-02-26T13:54:01;17.30;99.90
45619;DHT22;31343;47.520;19.144;2024-02-26T13:56:27;17.10;99.90
45619;DHT22;31343;47.520;19.144;2024-02-26T13:58:53;17.20;99.90
45619;DHT22;31343;47.520;19.144;2024-02-26T14:01:18;16.90;99.90
45619;DHT22;31343;47.520;19.144;2024-02-26T14:03:45;16.30;99.90
45619;DHT22;31343;47.520;19.144;2024-02-26T14:06:10;16.20;99.90
45619;DHT22;31343;47.520;19.144;2024-02-26T14:08:36;16.10;99.90
45619;DHT22;31343;47.520;19.144;2024-02-26T14:11:01;15.80;99.90
45619;DHT22;31343;47.520;19.144;2024-02-26T14:13:27;15.60;99.90
45619;DHT22;31343;47.520;19.144;2024-02-26T14:15:53;15.40;99.90
45619;DHT22;31343;47.520;19.144;2024-02-26T14:18:18;15.50;99.90
45619;DHT22;31343;47.520;19.144;2024-02-26T14:20:44;15.60;99.90
45619;DHT22;31343;47.520;19.144;2024-02-26T14:23:10;15.80;99.90
45619;DHT22;31343;47.520;19.144;2024-02-26T14:25:36;16.10;99.90
45619;DHT22;31343;47.520;19.144;2024-02-26T14:28:02;16.20;99.90
45619;DHT22;31343;47.520;19.144;2024-02-26T14:30:28;16.30;99.90
45619;DHT22;31343;47.520;19.144;2024-02-26T14:32:54;16.40;99.90
45619;DHT22;31343;47.520;19.144;2024-02-26T14:35:20;16.40;99.90
45619;DHT22;31343;47.520;19.144;2024-02-26T14:37:45;16.30;99.90
45619;DHT22;31343;47.520;19.144;2024-02-26T14:40:13;16.10;99.90
45619;DHT22;31343;47.520;19.144;2024-02-26T14:42:39;15.90;99.90
45619;DHT22;31343;47.520;19.144;2024-02-26T14:45:06;15.70;99.90
45619;DHT22;31343;47.520;19.144;2024-02-26T14:47:37;15.80;99.90
45619;DHT22;31343;47.520;19.144;2024-02-26T14:50:03;15.70;99.90
45619;DHT22;31343;47.520;19.144;2024-02-26T14:52:29;15.70;99.90
45619;DHT22;31343;47.520;19.144;2024-02-26T14:54:55;15.80;99.90
45619;DHT22;31343;47.520;19.144;2024-02-26T14:57:20;15.80;99.90
45619;DHT22;31343;47.520;19.144;2024-02-26T14:59:46;15.60;99.90
45619;DHT22;31343;47.520;19.144;2024-02-26T15:02:13;15.60;99.90
45619;DHT22;31343;47.520;19.144;2024-02-26T15:04:39;15.60;99.90
45619;DHT22;31343;47.520;19.144;2024-02-26T15:07:04;15.50;99.90
45619;DHT22;31343;47.520;19.144;2024-02-26T15:09:30;15.60;99.90
45619;DHT22;31343;47.520;19.144;2024-02-26T15:11:56;15.50;99.90
45619;DHT22;31343;47.520;19.144;2024-02-26T15:14:23;15.50;99.90
45619;DHT22;31343;47.520;19.144;2024-02-26T15:16:49;15.40;99.90
45619;DHT22;31343;47.520;19.144;2024-02-26T15:19:14;15.30;99.90
45619;DHT22;31343;47.520;19.144;2024-02-26T15:21:47;15.30;99.90
45619;DHT22;31343;47.520;19.144;2024-02-26T15:24:12;15.30;99.90